Time;durP1;ratioP1;P1;durP2;ratioP2;P2;SDS_P1;SDS_P2;PMS_P1;PMS_P2;Temp;Humidity;BMP_temperature;BMP_pressure;BME280_temperature;BME280_humidity;BME280_pressure;Samples;Min_cycle;Max_cycle;Signal;HPM_P1;HPM_P2
2021/08/22 00:00:09;;;;;;;7.40;6.70;;;;;;;;;;5053497;28;20451;-59
2021/08/22 00:02:37;;;;;;;8.17;7.40;;;;;;;;;;5053251;28;20440;-59
2021/08/22 00:05:04;;;;;;;7.70;7.00;;;;;;;;;;5053291;28;20464;-58
2021/08/22 00:07:32;;;;;;;7.30;6.63;;;;;;;;;;5053196;28;20443;-58
2021/08/22 00:09:59;;;;;;;7.07;6.47;;;;;;;;;;5053054;28;20452;-58
2021/08/22 00:12:27;;;;;;;7.87;7.20;;;;;;;;;;5052931;28;20452;-58
2021/08/22 00:14:54;;;;;;;7.80;7.00;;;;;;;;;;5053086;28;20873;-58
2021/08/22 00:17:23;;;;;;;7.57;6.70;;;;;;;;;;5052812;28;20448;-58
2021/08/22 00:19:50;;;;;;;7.27;6.50;;;;;;;;;;5053172;28;20455;-58
2021/08/22 00:22:17;;;;;;;7.10;6.40;;;;;;;;;;5053171;28;20498;-58
2021/08/22 00:24:44;;;;;;;8.57;7.20;;;;;;;;;;5056533;28;20452;-58
2021/08/22 00:27:12;;;;;;;8.20;7.43;;;;;;;;;;5057175;28;20497;-59
2021/08/22 00:29:39;;;;;;;8.20;7.50;;;;;;;;;;5057086;28;20505;-59
2021/08/22 00:32:07;;;;;;;7.87;6.90;;;;;;;;;;5057124;28;20451;-59
2021/08/22 00:34:35;;;;;;;6.90;6.30;;;;;;;;;;5056584;28;20484;-59
2021/08/22 00:37:03;;;;;;;8.13;7.30;;;;;;;;;;5056979;28;20884;-58
2021/08/22 00:39:30;;;;;;;7.40;6.80;;;;;;;;;;5056874;28;20490;-59
2021/08/22 00:41:57;;;;;;;8.10;7.30;;;;;;;;;;5056869;28;20444;-59
2021/08/22 00:44:25;;;;;;;7.50;6.80;;;;;;;;;;5057845;28;20526;-58
2021/08/22 00:46:53;;;;;;;10.07;7.70;;;;;;;;;;5056747;28;20494;-59
2021/08/22 00:49:22;;;;;;;9.10;8.20;;;;;;;;;;5056430;28;20505;-58
2021/08/22 00:51:51;;;;;;;8.27;7.47;;;;;;;;;;5056770;28;20534;-59
2021/08/22 00:54:18;;;;;;;8.10;7.30;;;;;;;;;;5056567;28;20499;-59
2021/08/22 00:56:45;;;;;;;8.10;7.30;;;;;;;;;;5056320;28;20997;-59
2021/08/22 00:59:13;;;;;;;8.00;7.20;;;;;;;;;;5056220;28;20444;-59
2021/08/22 01:01:42;;;;;;;8.60;7.60;;;;;;;;;;5056444;28;20936;-59
2021/08/22 01:04:13;;;;;;;7.73;6.93;;;;;;;;;;5056318;28;20514;-59
2021/08/22 01:06:47;;;;;;;8.77;7.93;;;;;;;;;;5056440;28;20481;-59
2021/08/22 01:09:19;;;;;;;7.47;6.77;;;;;;;;;;5056319;28;20450;-58
2021/08/22 01:11:46;;;;;;;8.13;7.43;;;;;;;;;;5056056;28;20428;-59
2021/08/22 01:14:15;;;;;;;8.47;7.67;;;;;;;;;;5056232;28;20487;-59
2021/08/22 01:16:43;;;;;;;8.60;7.87;;;;;;;;;;5055962;28;20939;-59
2021/08/22 01:19:15;;;;;;;8.87;7.97;;;;;;;;;;5056177;28;20440;-58
2021/08/22 01:21:43;;;;;;;8.03;7.37;;;;;;;;;;5055908;28;20919;-59
2021/08/22 01:24:10;;;;;;;8.60;7.90;;;;;;;;;;5056004;28;20464;-59
2021/08/22 01:26:40;;;;;;;9.60;7.00;;;;;;;;;;5056047;28;20452;-58
2021/08/22 01:29:07;;;;;;;8.70;7.90;;;;;;;;;;5056009;28;20497;-59
2021/08/22 01:31:38;;;;;;;8.20;7.40;;;;;;;;;;5056098;28;20450;-58
2021/08/22 01:34:07;;;;;;;8.77;8.07;;;;;;;;;;5055683;28;20479;-59
2021/08/22 01:36:35;;;;;;;7.93;7.23;;;;;;;;;;5055168;28;20448;-59
2021/08/22 01:39:02;;;;;;;8.57;7.73;;;;;;;;;;5055678;28;20497;-59
2021/08/22 01:41:30;;;;;;;7.83;7.17;;;;;;;;;;5056036;28;20444;-59
2021/08/22 01:43:58;;;;;;;8.13;6.90;;;;;;;;;;5055242;28;20984;-59
2021/08/22 01:46:29;;;;;;;8.07;7.37;;;;;;;;;;5055884;28;20428;-59
2021/08/22 01:48:56;;;;;;;8.40;7.60;;;;;;;;;;5055437;28;20970;-59
2021/08/22 01:51:27;;;;;;;9.17;7.50;;;;;;;;;;5055219;28;20498;-58
2021/08/22 01:53:54;;;;;;;8.13;7.30;;;;;;;;;;5055342;28;20488;-58
2021/08/22 01:56:23;;;;;;;8.10;7.30;;;;;;;;;;5055425;28;20494;-58
2021/08/22 01:58:50;;;;;;;9.43;7.37;;;;;;;;;;5055362;28;20448;-59
2021/08/22 02:01:18;;;;;;;7.57;6.87;;;;;;;;;;5055280;28;20460;-59
2021/08/22 02:03:48;;;;;;;8.30;7.50;;;;;;;;;;5054905;28;20469;-59
2021/08/22 02:06:17;;;;;;;8.60;7.80;;;;;;;;;;5055248;28;20502;-59
2021/08/22 02:08:50;;;;;;;8.00;7.20;;;;;;;;;;5055171;28;20494;-59
2021/08/22 02:11:20;;;;;;;7.93;7.23;;;;;;;;;;5055215;28;20432;-59
2021/08/22 02:13:48;;;;;;;10.10;7.93;;;;;;;;;;5054935;28;20488;-59
2021/08/22 02:16:19;;;;;;;8.30;7.50;;;;;;;;;;5055094;28;20444;-59
2021/08/22 02:18:47;;;;;;;8.77;7.97;;;;;;;;;;5054917;28;20498;-59
2021/08/22 02:21:14;;;;;;;8.17;7.27;;;;;;;;;;5054661;28;20448;-59
2021/08/22 02:23:42;;;;;;;7.53;6.83;;;;;;;;;;5054618;28;20498;-59
2021/08/22 02:26:10;;;;;;;9.40;7.63;;;;;;;;;;5055229;28;20448;-59
2021/08/22 02:28:38;;;;;;;7.70;6.87;;;;;;;;;;5054635;28;20444;-59
2021/08/22 02:31:05;;;;;;;9.33;8.50;;;;;;;;;;5054754;28;20449;-58
2021/08/22 02:33:32;;;;;;;9.20;8.40;;;;;;;;;;5054253;28;21052;-60
2021/08/22 02:35:59;;;;;;;9.03;8.30;;;;;;;;;;5054606;28;20498;-59
2021/08/22 02:38:26;;;;;;;8.40;7.60;;;;;;;;;;5054625;28;20440;-58
2021/08/22 02:40:54;;;;;;;8.20;7.50;;;;;;;;;;5054670;28;20851;-59
2021/08/22 02:43:22;;;;;;;8.50;7.70;;;;;;;;;;5054209;28;20444;-59
2021/08/22 02:45:50;;;;;;;9.03;8.13;;;;;;;;;;5054221;28;20470;-59
2021/08/22 02:48:17;;;;;;;9.30;8.50;;;;;;;;;;5053361;28;20501;-59
2021/08/22 02:50:45;;;;;;;10.27;9.37;;;;;;;;;;5054048;28;20448;-59
2021/08/22 02:53:12;;;;;;;9.30;8.40;;;;;;;;;;5053919;28;20847;-58
2021/08/22 02:55:39;;;;;;;8.90;7.53;;;;;;;;;;5053856;28;20980;-59
2021/08/22 02:58:06;;;;;;;9.47;8.40;;;;;;;;;;5054049;28;20499;-59
2021/08/22 03:00:35;;;;;;;9.07;8.17;;;;;;;;;;5054330;28;20452;-59
2021/08/22 03:03:02;;;;;;;9.80;8.90;;;;;;;;;;5054163;28;20494;-59
2021/08/22 03:05:30;;;;;;;8.93;8.13;;;;;;;;;;5054170;28;20517;-59
2021/08/22 03:07:57;;;;;;;9.10;8.20;;;;;;;;;;5054262;28;20436;-59
2021/08/22 03:10:24;;;;;;;9.70;8.70;;;;;;;;;;5054148;28;20553;-59
2021/08/22 03:12:52;;;;;;;9.43;8.50;;;;;;;;;;5054140;28;20448;-59
2021/08/22 03:15:19;;;;;;;8.60;7.80;;;;;;;;;;5053833;28;20534;-59
2021/08/22 03:17:47;;;;;;;10.00;8.40;;;;;;;;;;5054068;28;20444;-58
2021/08/22 03:20:16;;;;;;;9.00;8.30;;;;;;;;;;5054340;28;20441;-59
2021/08/22 03:22:43;;;;;;;8.83;8.03;;;;;;;;;;5053386;28;20952;-59
2021/08/22 03:25:11;;;;;;;9.33;8.40;;;;;;;;;;5053645;28;20825;-59
2021/08/22 03:27:39;;;;;;;8.37;7.57;;;;;;;;;;5053643;28;20502;-58
2021/08/22 03:30:06;;;;;;;9.13;8.30;;;;;;;;;;5053320;28;20866;-59
2021/08/22 03:32:33;;;;;;;10.60;8.37;;;;;;;;;;5053292;28;20497;-59
2021/08/22 03:35:02;;;;;;;9.47;8.57;;;;;;;;;;5053707;28;20476;-59
2021/08/22 03:37:29;;;;;;;9.03;8.20;;;;;;;;;;5054339;28;20452;-59
2021/08/22 03:39:57;;;;;;;10.43;8.40;;;;;;;;;;5053466;28;20490;-59
2021/08/22 03:42:24;;;;;;;10.77;9.67;;;;;;;;;;5053486;28;20448;-59
2021/08/22 03:44:51;;;;;;;12.30;10.50;;;;;;;;;;5053082;28;20852;-59
2021/08/22 03:47:18;;;;;;;10.23;8.70;;;;;;;;;;5053200;28;20452;-59
2021/08/22 03:49:45;;;;;;;10.43;9.43;;;;;;;;;;5053525;28;20448;-59
2021/08/22 03:52:14;;;;;;;10.10;9.00;;;;;;;;;;5053091;28;20851;-59
2021/08/22 03:54:41;;;;;;;8.57;7.87;;;;;;;;;;5053134;28;20484;-59
2021/08/22 03:57:08;;;;;;;9.30;8.13;;;;;;;;;;5053241;28;20559;-59
2021/08/22 03:59:36;;;;;;;8.10;7.40;;;;;;;;;;5052899;28;20444;-59
2021/08/22 04:02:03;;;;;;;8.43;7.33;;;;;;;;;;5053071;28;20502;-59
2021/08/22 04:04:30;;;;;;;9.17;8.23;;;;;;;;;;5053143;28;20464;-59
2021/08/22 04:08:31;;;;;;;8.73;8.03;;;;;;;;;;5093498;27;20564;-60
2021/08/22 04:10:59;;;;;;;8.10;7.30;;;;;;;;;;5092869;28;20934;-59
2021/08/22 04:13:26;;;;;;;7.23;6.53;;;;;;;;;;5091130;28;20496;-58
2021/08/22 04:15:53;;;;;;;10.37;9.37;;;;;;;;;;5091424;28;20438;-59
2021/08/22 04:18:21;;;;;;;11.87;10.87;;;;;;;;;;5090998;28;20499;-60
2021/08/22 04:20:48;;;;;;;11.27;10.17;;;;;;;;;;5090662;28;20849;-59
2021/08/22 04:23:15;;;;;;;11.20;10.30;;;;;;;;;;5090627;28;20434;-60
2021/08/22 04:25:45;;;;;;;12.50;11.30;;;;;;;;;;5090889;28;20470;-60
2021/08/22 04:28:13;;;;;;;13.73;12.53;;;;;;;;;;5090458;28;20523;-61
2021/08/22 04:30:40;;;;;;;14.77;13.40;;;;;;;;;;5090804;28;20968;-59
2021/08/22 04:33:07;;;;;;;15.40;13.63;;;;;;;;;;5090120;28;20446;-59
2021/08/22 04:35:34;;;;;;;14.47;12.97;;;;;;;;;;5090627;28;20474;-60
2021/08/22 04:38:02;;;;;;;17.53;15.83;;;;;;;;;;5090359;28;21000;-58
2021/08/22 04:40:29;;;;;;;17.40;15.57;;;;;;;;;;5090514;28;20856;-60
2021/08/22 04:42:58;;;;;;;18.60;16.80;;;;;;;;;;5090254;28;20442;-59
2021/08/22 04:45:25;;;;;;;19.27;17.57;;;;;;;;;;5090382;28;20462;-60
2021/08/22 04:47:52;;;;;;;18.77;16.10;;;;;;;;;;5089739;28;20884;-59
2021/08/22 04:50:20;;;;;;;19.97;17.97;;;;;;;;;;5089811;28;20495;-60
2021/08/22 04:52:47;;;;;;;20.90;18.80;;;;;;;;;;5089760;28;20787;-59
2021/08/22 04:55:14;;;;;;;19.93;18.07;;;;;;;;;;5090315;28;20454;-59
2021/08/22 04:57:41;;;;;;;18.33;16.63;;;;;;;;;;5090842;28;20859;-60
2021/08/22 05:00:11;;;;;;;18.97;17.30;;;;;;;;;;5089676;28;20500;-60
2021/08/22 05:02:38;;;;;;;19.60;17.60;;;;;;;;;;5093295;28;20922;-59
2021/08/22 05:05:06;;;;;;;19.80;17.80;;;;;;;;;;5095141;28;20516;-59
2021/08/22 05:07:33;;;;;;;18.83;17.13;;;;;;;;;;5093918;28;20536;-60
2021/08/22 05:10:00;;;;;;;20.00;18.13;;;;;;;;;;5096435;28;20480;-59
2021/08/22 05:12:27;;;;;;;21.53;19.53;;;;;;;;;;5092835;28;20447;-60
2021/08/22 05:14:54;;;;;;;20.37;18.30;;;;;;;;;;5089642;28;20519;-60
2021/08/22 05:17:23;;;;;;;20.70;18.60;;;;;;;;;;5089586;28;20439;-59
2021/08/22 05:19:50;;;;;;;22.53;20.33;;;;;;;;;;5075978;28;20508;-59
2021/08/22 05:22:18;;;;;;;23.00;20.90;;;;;;;;;;5075976;28;20792;-59
2021/08/22 05:24:45;;;;;;;22.27;20.10;;;;;;;;;;5075515;28;20467;-60
2021/08/22 05:27:12;;;;;;;22.33;19.77;;;;;;;;;;5075817;28;20471;-60
2021/08/22 05:29:39;;;;;;;22.40;20.10;;;;;;;;;;5075969;28;20450;-58
2021/08/22 05:32:07;;;;;;;24.60;21.67;;;;;;;;;;5075622;28;20443;-58
2021/08/22 05:34:35;;;;;;;22.73;20.30;;;;;;;;;;5075738;28;20465;-58
2021/08/22 05:37:03;;;;;;;22.83;20.63;;;;;;;;;;5075543;28;20951;-60
2021/08/22 05:39:30;;;;;;;24.17;21.70;;;;;;;;;;5075725;28;20527;-60
2021/08/22 05:41:57;;;;;;;24.10;21.53;;;;;;;;;;5075644;28;20524;-60
2021/08/22 05:44:24;;;;;;;22.97;20.67;;;;;;;;;;5075308;28;20516;-60
2021/08/22 05:46:51;;;;;;;23.20;20.90;;;;;;;;;;5075527;28;20475;-60
2021/08/22 05:49:19;;;;;;;23.43;21.10;;;;;;;;;;5075456;28;20520;-59
2021/08/22 05:51:48;;;;;;;22.57;20.27;;;;;;;;;;5075530;28;20493;-60
2021/08/22 05:54:15;;;;;;;24.03;21.03;;;;;;;;;;5076348;28;20467;-60
2021/08/22 05:56:42;;;;;;;24.27;21.87;;;;;;;;;;5075438;28;20443;-59
2021/08/22 05:59:10;;;;;;;26.33;23.67;;;;;;;;;;5075006;28;20989;-59
2021/08/22 06:01:38;;;;;;;24.77;22.40;;;;;;;;;;5075236;28;20516;-59
2021/08/22 06:04:05;;;;;;;26.63;23.93;;;;;;;;;;5075061;28;20545;-60
2021/08/22 06:06:32;;;;;;;25.97;23.53;;;;;;;;;;5074674;28;20451;-59
2021/08/22 06:09:01;;;;;;;26.17;23.77;;;;;;;;;;5075031;28;20463;-60
2021/08/22 06:11:28;;;;;;;26.77;24.07;;;;;;;;;;5074704;28;20435;-59
2021/08/22 06:13:55;;;;;;;24.60;22.27;;;;;;;;;;5074628;28;20467;-59
2021/08/22 06:16:22;;;;;;;26.00;23.63;;;;;;;;;;5074637;28;20451;-60
2021/08/22 06:18:50;;;;;;;25.73;23.23;;;;;;;;;;5074627;28;20444;-59
2021/08/22 06:21:17;;;;;;;25.03;22.70;;;;;;;;;;5074981;28;20458;-60
2021/08/22 06:23:44;;;;;;;25.60;23.20;;;;;;;;;;5074902;28;20472;-60
2021/08/22 06:26:13;;;;;;;22.70;20.50;;;;;;;;;;5074521;28;20459;-59
2021/08/22 06:28:40;;;;;;;23.43;21.33;;;;;;;;;;5074739;28;20475;-60
2021/08/22 06:31:07;;;;;;;21.00;18.80;;;;;;;;;;5073636;28;20444;-59
2021/08/22 06:33:34;;;;;;;20.50;18.70;;;;;;;;;;5074690;28;20500;-60
2021/08/22 06:36:02;;;;;;;21.07;19.20;;;;;;;;;;5074767;28;20450;-60
2021/08/22 06:38:29;;;;;;;19.77;17.87;;;;;;;;;;5074566;28;20949;-59
2021/08/22 06:40:57;;;;;;;21.63;19.47;;;;;;;;;;5075308;28;20492;-60
2021/08/22 06:43:25;;;;;;;20.40;18.60;;;;;;;;;;5074454;28;20845;-61
2021/08/22 06:45:52;;;;;;;19.90;18.13;;;;;;;;;;5075422;28;20935;-60
2021/08/22 06:48:20;;;;;;;19.67;17.87;;;;;;;;;;5074267;28;20532;-59
2021/08/22 06:50:47;;;;;;;21.60;18.73;;;;;;;;;;5074321;28;20516;-59
2021/08/22 06:53:15;;;;;;;19.93;18.20;;;;;;;;;;5074260;28;20447;-59
2021/08/22 06:55:42;;;;;;;19.23;17.43;;;;;;;;;;5074022;28;20517;-58
2021/08/22 06:58:09;;;;;;;18.20;16.53;;;;;;;;;;5074901;28;20451;-58
2021/08/22 07:00:38;;;;;;;18.30;16.60;;;;;;;;;;5073842;28;20949;-59
2021/08/22 07:03:07;;;;;;;19.57;17.53;;;;;;;;;;5074755;28;20447;-60
2021/08/22 07:05:34;;;;;;;17.10;15.50;;;;;;;;;;5073992;28;20554;-60
2021/08/22 07:08:02;;;;;;;18.03;16.33;;;;;;;;;;5073857;28;20535;-59
2021/08/22 07:10:29;;;;;;;17.13;15.63;;;;;;;;;;5074808;28;20447;-59
2021/08/22 07:12:56;;;;;;;18.30;16.50;;;;;;;;;;5074337;28;20451;-60
2021/08/22 07:15:23;;;;;;;18.47;16.47;;;;;;;;;;5073887;28;20459;-59
2021/08/22 07:17:52;;;;;;;17.87;16.20;;;;;;;;;;5074131;28;20992;-59
2021/08/22 07:20:19;;;;;;;16.17;14.67;;;;;;;;;;5074383;28;20447;-60
2021/08/22 07:22:46;;;;;;;16.20;14.70;;;;;;;;;;5073323;28;20512;-59
2021/08/22 07:25:14;;;;;;;17.57;15.87;;;;;;;;;;5073280;28;20562;-60
2021/08/22 07:27:41;;;;;;;17.70;15.33;;;;;;;;;;5073140;28;21074;-60
2021/08/22 07:30:09;;;;;;;16.93;15.00;;;;;;;;;;5073588;28;20466;-60
2021/08/22 07:32:36;;;;;;;14.67;13.27;;;;;;;;;;5073725;28;20789;-62
2021/08/22 07:35:05;;;;;;;15.37;14.07;;;;;;;;;;5073477;28;20467;-60
2021/08/22 07:37:32;;;;;;;14.67;13.17;;;;;;;;;;5073517;28;20537;-60
2021/08/22 07:40:00;;;;;;;14.73;13.33;;;;;;;;;;5073197;28;20455;-60
2021/08/22 07:42:27;;;;;;;15.40;13.80;;;;;;;;;;5073248;28;20496;-60
2021/08/22 07:44:54;;;;;;;14.30;12.90;;;;;;;;;;5073368;28;20474;-60
2021/08/22 07:47:21;;;;;;;13.43;12.23;;;;;;;;;;5073264;28;20443;-60
2021/08/22 07:49:49;;;;;;;13.50;12.20;;;;;;;;;;5073085;28;20447;-61
2021/08/22 07:52:17;;;;;;;14.33;13.00;;;;;;;;;;5073311;28;20447;-60
2021/08/22 07:54:44;;;;;;;12.90;11.70;;;;;;;;;;5073254;28;20459;-59
2021/08/22 07:57:12;;;;;;;13.43;12.03;;;;;;;;;;5073202;28;20517;-60
2021/08/22 07:59:39;;;;;;;13.60;12.17;;;;;;;;;;5072943;28;20496;-60
2021/08/22 08:02:06;;;;;;;13.80;12.50;;;;;;;;;;5073275;28;20435;-56
2021/08/22 08:04:33;;;;;;;14.10;12.70;;;;;;;;;;5073093;28;20533;-60
2021/08/22 08:07:01;;;;;;;14.47;13.03;;;;;;;;;;5072902;28;20875;-59
2021/08/22 08:09:29;;;;;;;13.27;12.00;;;;;;;;;;5073114;28;20479;-60
2021/08/22 08:11:58;;;;;;;14.07;12.57;;;;;;;;;;5073073;28;20439;-59
2021/08/22 08:14:26;;;;;;;12.43;11.27;;;;;;;;;;5072702;28;20471;-59
2021/08/22 08:16:53;;;;;;;14.20;11.20;;;;;;;;;;5072976;28;21004;-59
2021/08/22 08:19:20;;;;;;;14.33;12.93;;;;;;;;;;5072636;28;20443;-60
2021/08/22 08:21:47;;;;;;;14.23;12.93;;;;;;;;;;5072921;28;20442;-60
2021/08/22 08:24:14;;;;;;;14.90;13.40;;;;;;;;;;5072994;28;20459;-58
2021/08/22 08:26:43;;;;;;;14.90;13.40;;;;;;;;;;5072932;28;20520;-59
2021/08/22 08:29:10;;;;;;;14.27;12.90;;;;;;;;;;5072889;28;20523;-59
2021/08/22 08:31:38;;;;;;;13.57;12.17;;;;;;;;;;5073238;28;20469;-59
2021/08/22 08:34:06;;;;;;;12.87;11.67;;;;;;;;;;5073320;28;20524;-60
2021/08/22 08:36:33;;;;;;;13.57;12.17;;;;;;;;;;5072976;28;20489;-61
2021/08/22 08:39:00;;;;;;;13.93;12.47;;;;;;;;;;5073773;28;20439;-60
2021/08/22 08:41:27;;;;;;;14.77;13.37;;;;;;;;;;5072985;28;20443;-59
2021/08/22 08:43:56;;;;;;;14.27;12.73;;;;;;;;;;5073190;28;20463;-60
2021/08/22 08:46:24;;;;;;;11.27;10.20;;;;;;;;;;5072897;28;20501;-59
2021/08/22 08:48:53;;;;;;;13.53;12.17;;;;;;;;;;5072427;28;20474;-60
2021/08/22 08:51:29;;;;;;;13.57;12.30;;;;;;;;;;5072485;28;20935;-60
2021/08/22 08:53:57;;;;;;;26.63;23.80;;;;;;;;;;5074097;28;20458;-61
2021/08/22 08:56:24;;;;;;;12.70;11.57;;;;;;;;;;5076353;28;20446;-60
2021/08/22 08:58:51;;;;;;;13.40;12.10;;;;;;;;;;5076739;28;20435;-59
2021/08/22 09:01:20;;;;;;;11.83;10.73;;;;;;;;;;5076709;28;20447;-60
2021/08/22 09:04:02;;;;;;;10.83;9.90;;;;;;;;;;5076700;28;20521;-59
2021/08/22 09:06:47;;;;;;;11.00;9.93;;;;;;;;;;5075982;28;20451;-59
2021/08/22 09:09:41;;;;;;;9.93;9.00;;;;;;;;;;5045733;28;20486;-59
2021/08/22 09:12:27;;;;;;;9.73;8.83;;;;;;;;;;5076197;28;20427;-58
2021/08/22 09:15:12;;;;;;;10.30;9.50;;;;;;;;;;5075890;28;20455;-59
2021/08/22 09:17:58;;;;;;;8.93;7.87;;;;;;;;;;5076059;28;20518;-59
2021/08/22 09:20:43;;;;;;;7.83;7.17;;;;;;;;;;5075000;28;20471;-60
2021/08/22 09:23:28;;;;;;;9.60;8.33;;;;;;;;;;5075938;28;20423;-59
2021/08/22 09:26:14;;;;;;;8.47;7.70;;;;;;;;;;5075459;28;20506;-59
2021/08/22 09:29:14;;;;;;;8.20;7.40;;;;;;;;;;5075356;28;21044;-59
2021/08/22 09:32:08;;;;;;;7.83;7.13;;;;;;;;;;5075406;28;20468;-59
2021/08/22 09:34:59;;;;;;;6.63;6.10;;;;;;;;;;5075185;28;20970;-59
2021/08/22 09:37:41;;;;;;;7.50;6.90;;;;;;;;;;5075522;28;20482;-59
2021/08/22 09:40:39;;;;;;;7.33;6.63;;;;;;;;;;5075091;28;20509;-60
2021/08/22 09:43:25;;;;;;;7.97;7.17;;;;;;;;;;5076455;28;20442;-59
2021/08/22 09:46:22;;;;;;;7.90;7.20;;;;;;;;;;5076762;28;20444;-60
2021/08/22 09:49:05;;;;;;;8.07;7.37;;;;;;;;;;5075833;28;20518;-59
2021/08/22 09:51:47;;;;;;;7.60;7.00;;;;;;;;;;5076120;28;20513;-60
2021/08/22 09:54:33;;;;;;;7.10;6.50;;;;;;;;;;5074894;28;20532;-59
2021/08/22 09:57:30;;;;;;;6.70;6.20;;;;;;;;;;5076142;28;20531;-59
2021/08/22 10:00:15;;;;;;;7.73;7.10;;;;;;;;;;5013190;28;20442;-58
2021/08/22 10:03:01;;;;;;;7.77;6.67;;;;;;;;;;5068420;28;20500;-58
2021/08/22 10:05:36;;;;;;;8.33;7.53;;;;;;;;;;5074619;28;20489;-60
2021/08/22 10:08:06;;;;;;;6.50;5.93;;;;;;;;;;5074579;28;20466;-57
2021/08/22 10:10:34;;;;;;;7.13;6.53;;;;;;;;;;5075075;28;20439;-59
2021/08/22 10:13:01;;;;;;;7.53;6.93;;;;;;;;;;5074925;28;20504;-59
2021/08/22 10:15:29;;;;;;;6.50;6.00;;;;;;;;;;5074987;28;20474;-59
2021/08/22 10:17:56;;;;;;;7.33;6.73;;;;;;;;;;5074913;28;20441;-59
2021/08/22 10:20:40;;;;;;;7.13;6.53;;;;;;;;;;5075032;28;20454;-59
2021/08/22 10:23:29;;;;;;;7.10;6.50;;;;;;;;;;5075780;28;20520;-58
2021/08/22 10:25:56;;;;;;;6.70;6.20;;;;;;;;;;5077464;28;20499;-60
2021/08/22 10:28:38;;;;;;;6.87;6.27;;;;;;;;;;5075067;28;20891;-58
2021/08/22 10:31:05;;;;;;;7.03;6.43;;;;;;;;;;5074367;28;20441;-58
2021/08/22 10:33:32;;;;;;;7.20;6.60;;;;;;;;;;5074599;28;20520;-57
2021/08/22 10:36:18;;;;;;;6.33;5.83;;;;;;;;;;5074494;28;20515;-58
2021/08/22 10:38:47;;;;;;;6.80;6.20;;;;;;;;;;5074440;28;20820;-59
2021/08/22 10:41:29;;;;;;;7.17;6.57;;;;;;;;;;5074387;28;20448;-58
2021/08/22 10:43:56;;;;;;;6.40;5.90;;;;;;;;;;5074413;28;20808;-59
2021/08/22 10:46:46;;;;;;;6.57;5.97;;;;;;;;;;5074250;28;20447;-59
2021/08/22 10:49:13;;;;;;;6.73;6.20;;;;;;;;;;5074131;28;20522;-59
2021/08/22 10:51:40;;;;;;;6.67;6.17;;;;;;;;;;5074473;28;20450;-59
2021/08/22 10:54:21;;;;;;;7.17;6.67;;;;;;;;;;5074322;28;20820;-58
2021/08/22 10:56:48;;;;;;;6.60;6.00;;;;;;;;;;5073875;28;20430;-59
2021/08/22 10:59:15;;;;;;;8.30;7.60;;;;;;;;;;5073950;28;21054;-58
2021/08/22 11:01:43;;;;;;;6.43;5.93;;;;;;;;;;5074604;28;20521;-58
2021/08/22 11:04:12;;;;;;;6.57;6.07;;;;;;;;;;5073591;28;20891;-58
2021/08/22 11:06:39;;;;;;;7.03;6.43;;;;;;;;;;5073870;28;20467;-58
2021/08/22 11:09:06;;;;;;;6.90;6.30;;;;;;;;;;5074390;28;20477;-60
2021/08/22 11:11:35;;;;;;;7.40;6.80;;;;;;;;;;5075847;28;20448;-60
2021/08/22 11:14:03;;;;;;;7.50;6.90;;;;;;;;;;5077808;28;20469;-59
2021/08/22 11:16:41;;;;;;;8.47;7.70;;;;;;;;;;5076756;28;20845;-58
2021/08/22 11:19:08;;;;;;;8.30;7.60;;;;;;;;;;5077421;28;20946;-59
2021/08/22 11:21:35;;;;;;;7.00;6.40;;;;;;;;;;5077920;28;20858;-59
2021/08/22 11:24:03;;;;;;;7.70;7.00;;;;;;;;;;5074040;28;20883;-59
2021/08/22 11:26:31;;;;;;;7.57;6.77;;;;;;;;;;5073633;28;20852;-60
2021/08/22 11:29:00;;;;;;;7.50;6.80;;;;;;;;;;5073631;28;20473;-61
2021/08/22 11:31:30;;;;;;;8.43;7.03;;;;;;;;;;5073663;28;20471;-59
2021/08/22 11:33:59;;;;;;;8.00;7.23;;;;;;;;;;5073270;28;20553;-60
2021/08/22 11:36:27;;;;;;;7.30;6.60;;;;;;;;;;5073641;28;20444;-60
2021/08/22 11:39:13;;;;;;;10.83;6.90;;;;;;;;;;5073331;28;20446;-59
2021/08/22 11:41:43;;;;;;;8.10;7.40;;;;;;;;;;5073297;28;20425;-60
2021/08/22 11:44:12;;;;;;;7.63;7.03;;;;;;;;;;5072841;28;20971;-59
2021/08/22 11:46:39;;;;;;;8.53;7.83;;;;;;;;;;5072951;28;20794;-59
2021/08/22 11:49:07;;;;;;;8.37;7.67;;;;;;;;;;5073219;28;20550;-60
2021/08/22 11:51:34;;;;;;;7.60;6.90;;;;;;;;;;5073114;28;20490;-61
2021/08/22 11:54:02;;;;;;;8.23;7.63;;;;;;;;;;5073167;28;20885;-62
2021/08/22 11:56:29;;;;;;;8.40;7.80;;;;;;;;;;5072786;28;20453;-61
2021/08/22 11:58:56;;;;;;;7.10;6.53;;;;;;;;;;5073158;28;20493;-62
2021/08/22 12:01:27;;;;;;;9.00;8.20;;;;;;;;;;5073198;28;20458;-61
2021/08/22 12:03:58;;;;;;;10.43;9.63;;;;;;;;;;5072947;28;21044;-62
2021/08/22 12:06:26;;;;;;;11.07;10.17;;;;;;;;;;5072999;28;20455;-62
2021/08/22 12:08:53;;;;;;;12.13;11.23;;;;;;;;;;5073305;28;20548;-62
2021/08/22 12:11:23;;;;;;;12.47;11.37;;;;;;;;;;5073235;28;20443;-61
2021/08/22 12:13:50;;;;;;;10.20;9.40;;;;;;;;;;5072972;28;20463;-61
2021/08/22 12:16:29;;;;;;;9.50;8.80;;;;;;;;;;5072774;28;21001;-61
2021/08/22 12:18:57;;;;;;;9.50;8.60;;;;;;;;;;5073129;28;20485;-62
2021/08/22 12:21:24;;;;;;;8.63;7.83;;;;;;;;;;5073074;28;20447;-60
2021/08/22 12:23:52;;;;;;;8.40;7.63;;;;;;;;;;5072860;28;20475;-62
2021/08/22 12:26:20;;;;;;;7.63;7.00;;;;;;;;;;5073038;28;20491;-61
2021/08/22 12:28:48;;;;;;;8.43;7.73;;;;;;;;;;5074125;28;20520;-61
2021/08/22 12:31:16;;;;;;;8.50;7.70;;;;;;;;;;5076926;28;20451;-61
2021/08/22 12:33:46;;;;;;;8.23;7.50;;;;;;;;;;5076640;28;20987;-59
2021/08/22 12:36:14;;;;;;;8.30;7.50;;;;;;;;;;5076881;28;20498;-59
2021/08/22 12:38:43;;;;;;;8.30;7.60;;;;;;;;;;5076834;28;20475;-61
2021/08/22 12:41:23;;;;;;;9.60;8.70;;;;;;;;;;5076228;28;20452;-61
2021/08/22 12:43:50;;;;;;;9.43;8.53;;;;;;;;;;5076769;28;20463;-61
2021/08/22 12:46:17;;;;;;;9.90;9.00;;;;;;;;;;5077804;28;20439;-61
2021/08/22 12:48:46;;;;;;;9.53;8.73;;;;;;;;;;5076207;28;20514;-61
2021/08/22 12:51:13;;;;;;;9.37;8.57;;;;;;;;;;5076195;28;20933;-62
2021/08/22 12:53:41;;;;;;;8.37;7.77;;;;;;;;;;5076340;28;20506;-62
2021/08/22 12:56:08;;;;;;;9.47;8.43;;;;;;;;;;5076290;28;20443;-60
2021/08/22 12:58:35;;;;;;;10.00;9.20;;;;;;;;;;5076552;28;20453;-60
2021/08/22 13:01:02;;;;;;;8.60;7.90;;;;;;;;;;5076338;28;20809;-61
2021/08/22 13:03:30;;;;;;;9.10;8.23;;;;;;;;;;5075962;28;20503;-60
2021/08/22 13:05:58;;;;;;;9.33;7.67;;;;;;;;;;5076416;28;20443;-61
2021/08/22 13:08:25;;;;;;;9.90;9.00;;;;;;;;;;5076151;28;20515;-61
2021/08/22 13:10:53;;;;;;;9.70;8.90;;;;;;;;;;5076338;28;20533;-61
2021/08/22 13:13:20;;;;;;;9.10;8.40;;;;;;;;;;5076821;28;20452;-62
2021/08/22 13:15:47;;;;;;;9.00;8.17;;;;;;;;;;5076556;28;21046;-62
2021/08/22 13:18:14;;;;;;;9.27;8.57;;;;;;;;;;5076343;28;20444;-60
2021/08/22 13:20:42;;;;;;;10.13;9.23;;;;;;;;;;5076659;28;20499;-61
2021/08/22 13:23:10;;;;;;;11.00;10.10;;;;;;;;;;5076394;28;20864;-61
2021/08/22 13:25:37;;;;;;;9.27;8.50;;;;;;;;;;5076084;28;20459;-60
2021/08/22 13:28:05;;;;;;;9.73;8.93;;;;;;;;;;5076375;28;20447;-60
2021/08/22 13:30:32;;;;;;;10.60;9.70;;;;;;;;;;5076146;28;20548;-60
2021/08/22 13:32:59;;;;;;;10.70;9.80;;;;;;;;;;5079044;28;20451;-60
2021/08/22 13:35:27;;;;;;;10.63;9.53;;;;;;;;;;5084582;28;20462;-58
2021/08/22 13:37:54;;;;;;;10.60;9.63;;;;;;;;;;5085259;28;20443;-59
2021/08/22 13:40:22;;;;;;;10.87;9.90;;;;;;;;;;5076579;28;20850;-59
2021/08/22 13:42:50;;;;;;;10.60;9.70;;;;;;;;;;5076312;28;20506;-61
2021/08/22 13:45:17;;;;;;;10.23;9.33;;;;;;;;;;5075972;28;20543;-60
2021/08/22 13:47:44;;;;;;;10.17;9.27;;;;;;;;;;5075453;28;20446;-61
2021/08/22 13:50:12;;;;;;;10.70;9.80;;;;;;;;;;5075754;28;20474;-61
2021/08/22 13:52:40;;;;;;;10.13;9.33;;;;;;;;;;5075333;28;20512;-61
2021/08/22 13:55:08;;;;;;;8.93;8.23;;;;;;;;;;5075598;28;20500;-59
2021/08/22 13:57:37;;;;;;;8.57;7.87;;;;;;;;;;5075359;28;20886;-61
2021/08/22 14:00:04;;;;;;;8.03;7.43;;;;;;;;;;5075956;28;20449;-62
2021/08/22 14:02:32;;;;;;;9.00;8.30;;;;;;;;;;5076647;28;20450;-61
2021/08/22 14:04:59;;;;;;;9.70;8.90;;;;;;;;;;5075690;28;20470;-61
2021/08/22 14:07:26;;;;;;;9.57;8.80;;;;;;;;;;5075842;28;20463;-62
2021/08/22 14:09:53;;;;;;;8.80;8.10;;;;;;;;;;5075114;28;20532;-61
2021/08/22 14:12:21;;;;;;;10.23;9.40;;;;;;;;;;5075045;28;20443;-60
2021/08/22 14:14:49;;;;;;;9.33;8.40;;;;;;;;;;5075068;28;20463;-61
2021/08/22 14:17:17;;;;;;;8.80;8.00;;;;;;;;;;5075050;28;20451;-61
2021/08/22 14:19:45;;;;;;;8.30;7.60;;;;;;;;;;5075312;28;20446;-60
2021/08/22 14:22:14;;;;;;;9.97;8.97;;;;;;;;;;5078169;28;20451;-62
2021/08/22 14:24:41;;;;;;;9.23;8.40;;;;;;;;;;5083902;28;20891;-62
2021/08/22 14:27:08;;;;;;;9.00;8.20;;;;;;;;;;5086012;28;20523;-61
2021/08/22 14:29:36;;;;;;;10.80;9.70;;;;;;;;;;5084031;28;20478;-61
2021/08/22 14:32:06;;;;;;;11.37;10.33;;;;;;;;;;5075995;28;20455;-61
2021/08/22 14:34:33;;;;;;;11.50;9.33;;;;;;;;;;5075241;28;20507;-61
2021/08/22 14:37:01;;;;;;;10.80;9.90;;;;;;;;;;5074724;28;20454;-61
2021/08/22 14:39:28;;;;;;;9.90;9.10;;;;;;;;;;5074707;28;20863;-62
2021/08/22 14:41:55;;;;;;;9.33;8.63;;;;;;;;;;5074481;28;20500;-60
2021/08/22 14:44:22;;;;;;;9.80;9.00;;;;;;;;;;5074767;28;20467;-61
2021/08/22 14:46:50;;;;;;;9.50;8.80;;;;;;;;;;5074432;28;20854;-59